Time;durP1;ratioP1;P1;durP2;ratioP2;P2;SDS_P1;SDS_P2;PMS_P1;PMS_P2;Temp;Humidity;BMP_temperature;BMP_pressure;BME280_temperature;BME280_humidity;BME280_pressure;Samples;Min_cycle;Max_cycle;Signal;HPM_P1;HPM_P2
2023/06/19 00:00:50;;;;;;;4.88;1.40;;;;;;;20.82;100.00;100677.88;5029973;28;20037;-48
2023/06/19 00:03:16;;;;;;;2.70;1.60;;;;;;;20.71;100.00;100673.34;5040760;28;20170;-48
2023/06/19 00:05:41;;;;;;;1.75;1.60;;;;;;;20.62;100.00;100672.97;5041011;28;20492;-51
2023/06/19 00:08:06;;;;;;;5.68;1.58;;;;;;;20.56;100.00;100669.34;5044034;28;20491;-50
2023/06/19 00:10:33;;;;;;;2.53;1.42;;;;;;;20.52;100.00;100681.00;5013797;28;20080;-50
2023/06/19 00:12:58;;;;;;;4.05;1.60;;;;;;;20.44;100.00;100690.47;5034579;28;20026;-47
2023/06/19 00:15:23;;;;;;;4.68;1.50;;;;;;;20.33;100.00;100685.94;5035335;28;20052;-47
2023/06/19 00:17:49;;;;;;;1.95;1.77;;;;;;;20.19;100.00;100699.09;5037141;28;20106;-46
2023/06/19 00:20:14;;;;;;;11.02;2.15;;;;;;;20.23;100.00;100692.06;5051386;28;20029;-49
2023/06/19 00:22:40;;;;;;;3.50;1.95;;;;;;;20.19;100.00;100696.34;5049948;28;20025;-49
2023/06/19 00:25:06;;;;;;;3.92;2.33;;;;;;;20.10;100.00;100703.34;5050992;28;20399;-51
2023/06/19 00:27:31;;;;;;;4.65;2.33;;;;;;;19.98;100.00;100699.84;5051098;28;20029;-47
2023/06/19 00:30:01;;;;;;;2.83;2.40;;;;;;;19.93;100.00;100698.69;5045607;28;20108;-50
2023/06/19 00:32:28;;;;;;;4.63;3.40;;;;;;;19.87;100.00;100710.59;5046724;28;20048;-49
2023/06/19 00:34:53;;;;;;;4.85;3.60;;;;;;;19.92;100.00;100701.66;5049587;28;20463;-48
2023/06/19 00:37:19;;;;;;;11.07;3.25;;;;;;;19.87;100.00;100707.03;5049545;28;20036;-50
2023/06/19 00:39:44;;;;;;;7.38;3.72;;;;;;;19.88;100.00;100711.41;5051311;28;20434;-48
2023/06/19 00:42:10;;;;;;;3.83;3.30;;;;;;;19.92;100.00;100702.50;5042608;28;20033;-48
2023/06/19 00:44:36;;;;;;;5.82;3.53;;;;;;;19.91;100.00;100711.78;5045884;28;20040;-47
2023/06/19 00:47:02;;;;;;;5.80;3.40;;;;;;;19.92;100.00;100702.50;5036783;28;20519;-49
2023/06/19 00:49:29;;;;;;;3.92;3.47;;;;;;;19.86;100.00;100714.41;5045664;28;20491;-47
2023/06/19 00:51:55;;;;;;;4.80;3.83;;;;;;;19.81;100.00;100713.50;5033087;28;20029;-49
2023/06/19 00:54:21;;;;;;;4.95;3.42;;;;;;;19.82;100.00;100713.22;5035576;28;20025;-48
2023/06/19 00:56:46;;;;;;;4.45;3.67;;;;;;;19.77;100.00;100710.41;5038469;28;20369;-49
2023/06/19 00:59:16;;;;;;;7.55;3.40;;;;;;;19.75;100.00;100720.78;5043200;28;20032;-46
2023/06/19 01:01:41;;;;;;;4.90;3.60;;;;;;;19.74;100.00;100710.91;5029969;28;20399;-46
2023/06/19 01:04:07;;;;;;;7.50;3.78;;;;;;;19.71;100.00;100716.88;5038945;28;20245;-47
2023/06/19 01:06:42;;;;;;;6.00;3.80;;;;;;;19.69;100.00;100727.19;5044340;28;20492;-46
2023/06/19 01:09:11;;;;;;;5.15;4.22;;;;;;;19.63;100.00;100717.25;5048440;28;20032;-47
2023/06/19 01:11:41;;;;;;;8.75;4.75;;;;;;;19.54;100.00;100719.53;5046410;28;20032;-48
2023/06/19 01:14:09;;;;;;;11.23;4.60;;;;;;;19.52;100.00;100725.22;5016142;28;20056;-46
2023/06/19 01:16:35;;;;;;;6.00;5.20;;;;;;;19.47;100.00;100719.69;5047221;28;20744;-46
2023/06/19 01:19:00;;;;;;;8.85;4.80;;;;;;;19.44;100.00;100731.09;5038223;28;20036;-47
2023/06/19 01:21:26;;;;;;;6.40;5.35;;;;;;;19.36;100.00;100747.84;5030093;28;20052;-52
2023/06/19 01:23:51;;;;;;;7.10;5.05;;;;;;;19.32;100.00;100754.84;5047968;28;20025;-47
2023/06/19 01:26:18;;;;;;;9.27;6.53;;;;;;;19.17;100.00;100752.66;5029410;28;20033;-45
2023/06/19 01:28:44;;;;;;;8.48;7.13;;;;;;;19.22;100.00;100746.47;5029489;28;20022;-51
2023/06/19 01:31:17;;;;;;;7.80;7.10;;;;;;;19.25;100.00;100751.44;5050510;28;20029;-47
2023/06/19 01:33:43;;;;;;;13.88;8.70;;;;;;;19.12;100.00;100741.63;5046678;28;20029;-47
2023/06/19 01:36:09;;;;;;;9.93;8.68;;;;;;;19.14;100.00;100742.22;5028866;28;20025;-50
2023/06/19 01:38:34;;;;;;;9.80;8.23;;;;;;;19.22;100.00;100741.00;5037961;28;20034;-48
2023/06/19 01:41:02;;;;;;;9.68;8.20;;;;;;;19.28;100.00;100748.25;5043087;28;20037;-48
2023/06/19 01:43:30;;;;;;;12.98;9.95;;;;;;;19.25;100.00;100743.28;5050114;28;20116;-45
2023/06/19 01:45:57;;;;;;;17.92;10.63;;;;;;;19.21;100.00;100733.91;5045462;28;20515;-47
2023/06/19 01:48:23;;;;;;;16.47;13.20;;;;;;;19.20;100.00;100743.16;5033029;28;20033;-48
2023/06/19 01:50:48;;;;;;;17.02;12.90;;;;;;;19.25;100.00;100746.81;5033602;28;20349;-49
2023/06/19 01:53:14;;;;;;;16.88;12.13;;;;;;;19.28;100.00;100740.06;5032210;28;20041;-49
2023/06/19 01:55:40;;;;;;;17.80;12.52;;;;;;;19.29;100.00;100745.25;5043476;28;20100;-48
2023/06/19 01:58:06;;;;;;;17.70;13.75;;;;;;;19.29;100.00;100733.50;5048504;28;20056;-51
2023/06/19 02:00:35;;;;;;;17.20;13.80;;;;;;;19.29;100.00;100749.88;5048764;28;20155;-48
2023/06/19 02:03:00;;;;;;;16.52;13.15;;;;;;;19.33;100.00;100747.53;5050016;28;20032;-46
2023/06/19 02:05:26;;;;;;;20.42;15.65;;;;;;;19.33;100.00;100753.81;5050036;28;20359;-47
2023/06/19 02:07:51;;;;;;;20.48;15.98;;;;;;;19.39;100.00;100755.53;5042969;28;20033;-46
2023/06/19 02:10:16;;;;;;;23.58;17.77;;;;;;;19.39;100.00;100750.09;5028537;28;20080;-46
2023/06/19 02:12:42;;;;;;;23.67;18.55;;;;;;;19.41;100.00;100756.16;5034476;28;20040;-50
2023/06/19 02:15:08;;;;;;;33.20;24.20;;;;;;;19.39;100.00;100755.53;5030212;28;20389;-49
2023/06/19 02:17:33;;;;;;;35.63;25.73;;;;;;;19.26;100.00;100769.47;5029658;28;20436;-48
2023/06/19 02:19:59;;;;;;;46.88;28.48;;;;;;;19.05;100.00;100801.78;5033165;28;20029;-51
2023/06/19 02:22:25;;;;;;;51.78;31.63;;;;;;;18.93;100.00;100809.16;5035790;28;20029;-50
2023/06/19 02:24:50;;;;;;;50.40;32.53;;;;;;;18.82;100.00;100829.06;5033440;28;20063;-46
2023/06/19 02:27:15;;;;;;;68.97;37.95;;;;;;;18.72;100.00;100828.78;5052265;28;20112;-47
2023/06/19 02:29:41;;;;;;;71.93;42.00;;;;;;;18.69;100.00;100842.88;5014975;28;20087;-45
2023/06/19 02:32:07;;;;;;;80.40;45.65;;;;;;;18.69;100.00;100851.06;5033147;28;20026;-47
2023/06/19 02:34:32;;;;;;;85.55;46.67;;;;;;;18.60;100.00;100859.59;5048190;28;20037;-47
2023/06/19 02:36:58;;;;;;;88.40;48.90;;;;;;;18.61;100.00;100869.41;5032596;28;20022;-49
2023/06/19 02:39:23;;;;;;;93.22;52.33;;;;;;;18.57;100.00;100870.97;5033470;28;20021;-45
2023/06/19 02:41:48;;;;;;;94.00;52.90;;;;;;;18.56;100.00;100873.91;5036992;28;20510;-46
2023/06/19 02:44:14;;;;;;;89.10;53.95;;;;;;;18.51;100.00;100874.63;5042715;28;20057;-48
2023/06/19 02:46:40;;;;;;;94.65;54.53;;;;;;;18.52;100.00;100881.72;5030586;28;20025;-49
2023/06/19 02:49:05;;;;;;;92.18;51.25;;;;;;;18.51;100.00;100885.53;5034816;28;20091;-46
2023/06/19 02:51:30;;;;;;;85.78;52.42;;;;;;;18.42;100.00;100895.09;5049948;28;20024;-46
2023/06/19 02:53:56;;;;;;;84.22;51.22;;;;;;;18.27;100.00;100891.97;5033491;28;20333;-48
2023/06/19 02:56:22;;;;;;;84.28;52.33;;;;;;;18.15;100.00;100906.38;5049160;28;20045;-51
2023/06/19 02:58:47;;;;;;;88.75;52.38;;;;;;;18.13;100.00;100908.50;5039892;28;20112;-50
2023/06/19 03:01:12;;;;;;;86.18;49.58;;;;;;;18.05;100.00;100922.44;5032687;28;20109;-48
2023/06/19 03:03:38;;;;;;;87.35;47.80;;;;;;;18.07;100.00;100933.94;5036416;28;20071;-46
2023/06/19 03:06:07;;;;;;;78.45;41.65;;;;;;;18.04;100.00;100942.56;5041501;28;20018;-47
2023/06/19 03:08:34;;;;;;;63.20;36.08;;;;;;;18.01;100.00;100958.50;5040610;28;20040;-51
2023/06/19 03:10:59;;;;;;;54.55;32.03;;;;;;;17.98;100.00;100957.06;5033155;28;20048;-44
2023/06/19 03:13:24;;;;;;;61.17;35.25;;;;;;;17.91;100.00;100959.91;5051365;28;20025;-45
2023/06/19 03:15:51;;;;;;;75.35;39.22;;;;;;;17.87;100.00;100961.41;5052694;28;20037;-46
2023/06/19 03:18:17;;;;;;;74.50;42.63;;;;;;;17.82;100.00;100960.41;5052526;28;20360;-47
2023/06/19 03:20:42;;;;;;;103.00;51.67;;;;;;;17.83;100.00;100973.81;5033153;28;20040;-44
2023/06/19 03:23:08;;;;;;;110.72;54.83;;;;;;;17.84;100.00;100974.66;5032372;28;20037;-46
2023/06/19 03:25:34;;;;;;;127.20;59.47;;;;;;;17.80;100.00;100978.88;5049272;28;20025;-47
2023/06/19 03:28:02;;;;;;;137.85;61.85;;;;;;;17.77;100.00;100980.13;5052261;28;20021;-45
2023/06/19 03:30:27;;;;;;;138.43;61.70;;;;;;;17.77;100.00;100991.00;5052490;28;20036;-48
2023/06/19 03:32:53;;;;;;;127.13;58.33;;;;;;;17.72;100.00;100980.81;5050589;28;20025;-47
2023/06/19 03:35:18;;;;;;;120.28;55.20;;;;;;;17.65;100.00;101003.72;5051835;28;20021;-44
2023/06/19 03:37:43;;;;;;;101.70;49.35;;;;;;;17.60;100.00;100984.50;5047124;28;20287;-46
2023/06/19 03:40:13;;;;;;;104.25;49.53;;;;;;;17.64;100.00;100992.00;5017517;28;20072;-47
2023/06/19 03:42:38;;;;;;;90.55;44.85;;;;;;;17.64;100.00;100997.44;5031170;28;20037;-47
2023/06/19 03:45:04;;;;;;;88.13;43.30;;;;;;;17.66;100.00;100989.03;5034683;28;20064;-48
2023/06/19 03:47:31;;;;;;;81.75;39.63;;;;;;;17.58;100.00;101000.22;5033243;28;20034;-44
2023/06/19 03:49:56;;;;;;;71.55;37.15;;;;;;;17.58;100.00;100997.50;5041695;28;20494;-45
2023/06/19 03:52:21;;;;;;;68.38;33.83;;;;;;;17.54;100.00;101006.13;5044636;28;20164;-46
2023/06/19 03:54:47;;;;;;;56.35;30.83;;;;;;;17.55;100.00;101005.06;5045142;28;20079;-49
2023/06/19 03:57:13;;;;;;;52.00;29.75;;;;;;;17.54;100.00;101005.28;5045761;28;20029;-46
2023/06/19 03:59:39;;;;;;;46.83;25.58;;;;;;;17.53;100.00;100996.28;5044325;28;20033;-44
2023/06/19 04:02:04;;;;;;;44.30;23.63;;;;;;;17.58;100.00;101002.94;5033516;28;20476;-45
2023/06/19 04:04:30;;;;;;;43.17;23.38;;;;;;;17.51;100.00;101001.13;5044108;28;20432;-46
2023/06/19 04:06:55;;;;;;;42.78;21.20;;;;;;;17.51;100.00;101000.31;5045834;28;20107;-46
2023/06/19 04:09:20;;;;;;;40.22;19.48;;;;;;;17.46;100.00;101000.13;5034250;28;20033;-46
2023/06/19 04:11:46;;;;;;;30.27;19.02;;;;;;;17.45;100.00;100999.28;5038369;28;20029;-45
2023/06/19 04:14:12;;;;;;;27.17;18.08;;;;;;;17.45;100.00;101006.63;5028919;28;20447;-49
2023/06/19 04:16:37;;;;;;;35.85;20.30;;;;;;;17.43;100.00;101000.56;5033180;28;20414;-47
2023/06/19 04:19:04;;;;;;;26.30;18.48;;;;;;;17.41;100.00;101003.53;5045340;28;20552;-47
2023/06/19 04:21:29;;;;;;;38.15;21.13;;;;;;;17.42;100.00;101009.78;5043496;28;20033;-48
2023/06/19 04:23:55;;;;;;;40.88;21.38;;;;;;;17.38;100.00;101022.16;5033141;28;20428;-47
2023/06/19 04:26:21;;;;;;;36.65;23.00;;;;;;;17.32;100.00;101016.59;5036017;28;20386;-51
2023/06/19 04:28:46;;;;;;;43.72;23.50;;;;;;;17.34;100.00;101028.06;5034772;28;20029;-48
2023/06/19 04:31:12;;;;;;;40.78;24.70;;;;;;;17.32;100.00;101027.47;5031380;28;20522;-45
2023/06/19 04:33:37;;;;;;;46.80;24.63;;;;;;;17.33;100.00;101040.00;5031414;28;20029;-50
2023/06/19 04:36:03;;;;;;;41.17;25.95;;;;;;;17.30;100.00;101040.44;5031928;28;20492;-47
2023/06/19 04:38:28;;;;;;;44.78;26.63;;;;;;;17.35;100.00;101053.38;5034625;28;20369;-47
2023/06/19 04:40:53;;;;;;;46.15;25.55;;;;;;;17.31;100.00;101041.28;5031290;28;20492;-47
2023/06/19 04:43:19;;;;;;;45.92;26.38;;;;;;;17.26;100.00;101036.50;5030098;28;20025;-49
2023/06/19 04:45:44;;;;;;;47.35;26.70;;;;;;;17.28;100.00;101048.00;5033211;28;20021;-46
2023/06/19 04:48:11;;;;;;;49.45;27.08;;;;;;;17.30;100.00;101055.94;5037034;28;20144;-49
2023/06/19 04:50:38;;;;;;;43.45;25.48;;;;;;;17.21;100.00;101057.25;5051066;28;20054;-50
2023/06/19 04:53:05;;;;;;;48.90;24.93;;;;;;;17.22;100.00;101048.03;5039973;28;20057;-50
2023/06/19 04:55:31;;;;;;;44.80;24.27;;;;;;;17.32;100.00;101059.25;5029395;28;20330;-46
2023/06/19 04:57:56;;;;;;;45.47;24.52;;;;;;;17.17;100.00;101051.44;5031040;28;20468;-48
2023/06/19 05:00:23;;;;;;;41.63;23.15;;;;;;;17.08;100.00;101053.56;5030808;28;20099;-48
2023/06/19 05:02:49;;;;;;;42.57;24.87;;;;;;;17.10;100.00;101051.47;5031079;28;20037;-46
2023/06/19 05:05:14;;;;;;;44.78;25.88;;;;;;;16.99;100.00;101062.22;5032590;28;20041;-46
2023/06/19 05:07:40;;;;;;;50.05;26.20;;;;;;;16.94;100.00;101073.75;5029742;28;20342;-45
2023/06/19 05:10:07;;;;;;;45.15;26.58;;;;;;;16.91;100.00;101062.50;5031117;28;20108;-47
2023/06/19 05:12:33;;;;;;;49.15;26.90;;;;;;;16.96;100.00;101076.25;5030384;28;20045;-48
2023/06/19 05:14:58;;;;;;;46.78;27.58;;;;;;;16.95;100.00;101077.28;5028745;28;20467;-47
2023/06/19 05:17:24;;;;;;;44.45;27.30;;;;;;;16.91;100.00;101085.06;5034273;28;20800;-47
2023/06/19 05:19:49;;;;;;;49.10;27.27;;;;;;;16.98;100.00;101090.44;5046143;28;20112;-46
2023/06/19 05:22:14;;;;;;;51.80;28.20;;;;;;;16.99;100.00;101081.25;5033533;28;20057;-48
2023/06/19 05:24:40;;;;;;;54.83;27.00;;;;;;;17.06;100.00;101082.03;5029808;28;20082;-47
2023/06/19 05:27:05;;;;;;;46.97;27.02;;;;;;;17.06;100.00;101087.47;5030017;28;20037;-51
2023/06/19 05:29:32;;;;;;;52.42;26.60;;;;;;;16.99;100.00;101087.53;5029731;28;20446;-48
2023/06/19 05:31:57;;;;;;;46.83;27.00;;;;;;;16.98;100.00;101085.00;5033376;28;20025;-48
2023/06/19 05:34:22;;;;;;;44.15;25.70;;;;;;;16.94;100.00;101089.22;5030375;28;20041;-48
2023/06/19 05:36:49;;;;;;;39.22;24.55;;;;;;;16.87;100.00;101100.97;5029189;28;20060;-51
2023/06/19 05:39:14;;;;;;;42.67;24.73;;;;;;;16.89;100.00;101104.31;5032859;28;20395;-48
2023/06/19 05:41:40;;;;;;;40.67;24.80;;;;;;;16.83;100.00;101109.78;5028816;28;20147;-49
2023/06/19 05:44:06;;;;;;;39.42;24.67;;;;;;;16.76;100.00;101098.91;5028320;28;20064;-49
2023/06/19 05:46:31;;;;;;;43.83;25.65;;;;;;;16.71;100.00;101106.88;5030194;28;20018;-48
2023/06/19 05:48:56;;;;;;;41.50;24.92;;;;;;;16.64;100.00;101103.34;5030063;28;20040;-49
2023/06/19 05:51:22;;;;;;;50.15;25.58;;;;;;;16.61;100.00;101098.34;5016946;28;20033;-47
2023/06/19 05:53:49;;;;;;;40.80;24.25;;;;;;;16.62;100.00;101109.00;5030008;28;20029;-51
2023/06/19 05:56:15;;;;;;;41.67;26.17;;;;;;;16.60;100.00;101104.84;5038321;28;21687;-51
2023/06/19 05:58:41;;;;;;;42.42;26.80;;;;;;;16.62;100.00;101108.19;5043869;28;20297;-48
2023/06/19 06:01:06;;;;;;;37.55;23.90;;;;;;;16.70;100.00;101102.50;5042651;28;20037;-47
2023/06/19 06:03:32;;;;;;;38.13;25.23;;;;;;;16.70;100.00;101105.22;5041771;28;20037;-49
2023/06/19 06:06:02;;;;;;;41.45;26.08;;;;;;;16.66;100.00;101101.25;5053032;28;20033;-46
2023/06/19 06:08:31;;;;;;;41.08;24.95;;;;;;;16.65;100.00;101102.31;5054420;28;20025;-48
2023/06/19 06:10:57;;;;;;;36.45;22.65;;;;;;;16.65;100.00;101108.56;5052977;28;20021;-47
2023/06/19 06:13:22;;;;;;;42.28;23.92;;;;;;;16.61;100.00;101107.34;5052290;28;20036;-49
2023/06/19 06:15:48;;;;;;;34.58;23.40;;;;;;;16.69;100.00;101117.13;5046555;28;20037;-53
2023/06/19 06:18:13;;;;;;;42.33;22.38;;;;;;;16.74;100.00;101128.19;5032828;28;20069;-51
2023/06/19 06:20:39;;;;;;;35.20;21.73;;;;;;;16.68;100.00;101115.47;5033512;28;20087;-48
2023/06/19 06:23:04;;;;;;;34.47;22.58;;;;;;;16.77;100.00;101124.19;5033501;28;20450;-50
2023/06/19 06:25:30;;;;;;;39.35;21.83;;;;;;;16.81;100.00;101136.34;5033527;28;20037;-49
2023/06/19 06:27:55;;;;;;;49.70;24.10;;;;;;;16.81;100.00;101134.47;5033431;28;20025;-49
2023/06/19 06:30:21;;;;;;;36.53;22.40;;;;;;;16.71;100.00;101144.91;5032104;28;20377;-53
2023/06/19 06:32:46;;;;;;;42.83;23.73;;;;;;;16.74;100.00;101143.66;5033394;28;20406;-48
2023/06/19 06:35:11;;;;;;;37.90;22.90;;;;;;;16.71;100.00;101133.22;5019651;28;20031;-49
2023/06/19 06:37:37;;;;;;;33.83;22.58;;;;;;;16.83;100.00;101148.66;5027895;28;20112;-47
2023/06/19 06:40:07;;;;;;;34.15;20.63;;;;;;;16.84;100.00;101149.50;5044513;28;20380;-47
2023/06/19 06:42:33;;;;;;;38.60;21.50;;;;;;;17.05;100.00;101140.19;5041892;28;20054;-46
2023/06/19 06:44:58;;;;;;;43.42;22.13;;;;;;;17.18;100.00;101142.00;5044557;28;20532;-45
2023/06/19 06:47:23;;;;;;;33.83;18.02;;;;;;;17.24;100.00;101133.78;5043858;28;20404;-47
2023/06/19 06:49:49;;;;;;;32.72;17.95;;;;;;;17.31;100.00;101139.22;5042886;28;20044;-48
2023/06/19 06:52:14;;;;;;;36.85;18.38;;;;;;;17.39;100.00;101144.38;5042654;28;20040;-46
2023/06/19 06:54:39;;;;;;;26.27;16.77;;;;;;;17.45;100.00;101138.06;5043687;28;20681;-48
2023/06/19 06:57:05;;;;;;;28.88;16.50;;;;;;;17.47;100.00;101138.66;5043934;28;20072;-47
2023/06/19 06:59:31;;;;;;;28.25;15.95;;;;;;;17.58;100.00;101137.13;5047553;28;20033;-47
2023/06/19 07:01:57;;;;;;;30.38;16.42;;;;;;;17.57;100.00;101148.25;5049214;28;20029;-47
2023/06/19 07:04:22;;;;;;;31.83;15.30;;;;;;;17.55;100.00;101152.00;5047250;28;20056;-48
2023/06/19 07:06:48;;;;;;;24.70;15.32;;;;;;;17.55;100.00;101154.72;5046688;28;20107;-49
2023/06/19 07:09:15;;;;;;;24.45;15.00;;;;;;;17.49;100.00;101152.91;5044714;28;20048;-47
2023/06/19 07:11:40;;;;;;;20.80;15.05;;;;;;;17.45;100.00;101153.56;5045544;28;20029;-47
2023/06/19 07:14:05;;;;;;;22.85;15.18;;;;;;;17.50;100.00;101151.00;5045986;28;20040;-47
2023/06/19 07:16:31;;;;;;;28.55;15.60;;;;;;;17.85;100.00;101172.31;5046197;28;20017;-48
2023/06/19 07:18:56;;;;;;;24.85;15.52;;;;;;;18.00;100.00;101156.50;5045950;28;20085;-47
2023/06/19 07:21:23;;;;;;;31.77;15.80;;;;;;;18.10;100.00;101154.09;5047477;28;20033;-48
2023/06/19 07:23:49;;;;;;;30.95;16.80;;;;;;;18.31;100.00;101160.19;5046543;28;20526;-46
2023/06/19 07:26:14;;;;;;;26.92;16.40;;;;;;;18.28;100.00;101157.91;5045965;28;20033;-51
2023/06/19 07:28:40;;;;;;;29.20;16.70;;;;;;;18.43;100.00;101158.34;5046146;28;20032;-49
2023/06/19 07:31:06;;;;;;;25.77;15.75;;;;;;;18.43;100.00;101156.50;5047294;28;20487;-49
2023/06/19 07:33:31;;;;;;;24.70;15.05;;;;;;;18.65;100.00;101162.31;5048476;28;20095;-49
2023/06/19 07:35:57;;;;;;;26.50;15.80;;;;;;;18.88;100.00;101160.81;5047390;28;20088;-47
2023/06/19 07:38:22;;;;;;;24.80;14.80;;;;;;;18.89;100.00;101161.66;5047277;28;20389;-48
2023/06/19 07:40:48;;;;;;;24.38;15.68;;;;;;;18.70;100.00;101153.47;5046924;28;20142;-49
2023/06/19 07:43:13;;;;;;;27.55;15.70;;;;;;;18.58;100.00;101158.00;5046862;28;20033;-47
2023/06/19 07:45:38;;;;;;;25.67;16.45;;;;;;;18.38;100.00;101167.25;5045297;28;20118;-47
2023/06/19 07:48:04;;;;;;;31.80;17.70;;;;;;;18.40;100.00;101178.75;5044665;28;20445;-48
2023/06/19 07:50:30;;;;;;;24.40;16.63;;;;;;;18.14;100.00;101177.13;5045710;28;20509;-48
2023/06/19 07:52:56;;;;;;;27.52;17.02;;;;;;;18.29;100.00;101184.09;5045069;28;20540;-48
2023/06/19 07:55:21;;;;;;;27.48;17.00;;;;;;;18.18;100.00;101191.94;5045046;28;20562;-46
2023/06/19 07:57:47;;;;;;;27.25;16.95;;;;;;;18.17;100.00;101187.56;5044288;28;20052;-48
2023/06/19 08:00:13;;;;;;;26.15;16.30;;;;;;;18.12;100.00;101192.84;5044816;28;20040;-46
2023/06/19 08:02:39;;;;;;;26.40;16.58;;;;;;;18.15;100.00;101186.13;5043365;28;20391;-47
2023/06/19 08:05:05;;;;;;;28.48;16.98;;;;;;;18.26;100.00;101195.44;5045418;28;20060;-49
2023/06/19 08:07:31;;;;;;;22.65;15.27;;;;;;;18.48;100.00;101182.22;5044125;28;20041;-46
2023/06/19 08:09:57;;;;;;;27.77;16.35;;;;;;;18.63;100.00;101188.13;5044142;28;20057;-50
2023/06/19 08:12:23;;;;;;;26.00;15.68;;;;;;;18.69;100.00;101183.66;5026830;28;20056;-46
2023/06/19 08:14:49;;;;;;;29.13;15.88;;;;;;;18.62;100.00;101184.59;5045219;28;20025;-47
2023/06/19 08:17:14;;;;;;;24.15;14.70;;;;;;;18.65;100.00;101184.13;5044108;28;20029;-47
2023/06/19 08:19:39;;;;;;;26.55;14.95;;;;;;;18.81;100.00;101181.88;5044389;28;20060;-49
2023/06/19 08:22:06;;;;;;;27.65;15.70;;;;;;;19.21;100.00;101182.19;5045215;28;20446;-47
2023/06/19 08:24:31;;;;;;;26.55;14.57;;;;;;;19.31;100.00;101192.56;5048599;28;20036;-49
2023/06/19 08:26:56;;;;;;;23.33;14.95;;;;;;;19.10;100.00;101190.34;5050047;28;20450;-49
2023/06/19 08:29:22;;;;;;;28.10;15.38;;;;;;;18.95;100.00;101199.72;5051415;28;20033;-50
2023/06/19 08:31:48;;;;;;;26.63;16.08;;;;;;;18.99;100.00;101200.97;5051027;28;20063;-51
2023/06/19 08:34:13;;;;;;;25.70;15.35;;;;;;;19.27;100.00;101219.50;5050036;28;20108;-50
2023/06/19 08:36:39;;;;;;;27.95;15.32;;;;;;;19.29;100.00;101213.78;5050813;28;20040;-47
2023/06/19 08:39:04;;;;;;;27.05;15.75;;;;;;;19.27;100.00;101213.19;5051061;28;20113;-48
2023/06/19 08:41:29;;;;;;;24.88;15.05;;;;;;;19.21;100.00;101219.56;5051464;28;20032;-48
2023/06/19 08:43:55;;;;;;;23.88;15.68;;;;;;;18.95;100.00;101218.00;5051724;28;20044;-46
2023/06/19 08:46:20;;;;;;;24.40;15.60;;;;;;;18.80;100.00;101221.97;5049760;28;20029;-46
2023/06/19 08:48:46;;;;;;;22.92;13.95;;;;;;;18.66;100.00;101234.03;5050980;28;20032;-47
2023/06/19 08:51:12;;;;;;;25.63;14.07;;;;;;;18.61;100.00;101231.13;5033476;28;20027;-47
2023/06/19 08:53:52;;;;;;;26.90;14.65;;;;;;;18.70;100.00;101223.50;5049955;28;20065;-46
2023/06/19 08:56:18;;;;;;;20.67;13.20;;;;;;;18.75;100.00;101220.97;5051241;28;20463;-46
2023/06/19 08:58:43;;;;;;;19.25;12.55;;;;;;;18.77;100.00;101218.84;5049469;28;20060;-47
2023/06/19 09:01:11;;;;;;;19.58;13.27;;;;;;;18.88;100.00;101219.97;5033203;28;20053;-50
2023/06/19 09:03:36;;;;;;;20.52;14.05;;;;;;;19.06;100.00;101214.50;5049808;28;20116;-45
2023/06/19 09:06:08;;;;;;;21.48;14.55;;;;;;;19.19;100.00;101216.22;5051229;28;20119;-46
2023/06/19 09:08:35;;;;;;;21.08;13.95;;;;;;;19.38;100.00;101223.34;5050607;28;20435;-48
2023/06/19 09:11:02;;;;;;;22.57;14.50;;;;;;;19.41;100.00;101219.31;5049498;28;20029;-47
2023/06/19 09:13:29;;;;;;;19.17;12.55;;;;;;;19.44;100.00;101224.31;5050523;28;20036;-47
2023/06/19 09:16:03;;;;;;;24.37;13.27;;;;;;;19.39;100.00;101229.63;5049590;28;20033;-45
2023/06/19 09:18:31;;;;;;;21.65;12.70;;;;;;;19.57;100.00;101236.94;5049256;28;20287;-49
2023/06/19 09:20:56;;;;;;;21.88;11.95;;;;;;;20.30;100.00;101244.84;5049340;28;20037;-46
2023/06/19 09:23:22;;;;;;;15.45;10.43;;;;;;;21.08;100.00;101239.19;5049155;28;20486;-48
2023/06/19 09:25:52;;;;;;;17.92;10.18;;;;;;;21.66;100.00;101243.63;5049030;28;20029;-52
2023/06/19 09:28:21;;;;;;;21.98;11.00;;;;;;;22.14;100.00;101236.78;5049223;28;20028;-45
2023/06/19 09:30:57;;;;;;;16.30;9.65;;;;;;;22.46;100.00;101239.78;5049044;28;20064;-48
2023/06/19 09:33:24;;;;;;;15.75;9.90;;;;;;;22.64;100.00;101240.56;5049822;28;20147;-47
2023/06/19 09:35:50;;;;;;;;;;;;;;;22.96;100.00;101241.59;5049740;28;20104;-49
2023/06/19 09:38:17;;;;;;;15.82;9.18;;;;;;;22.70;100.00;101242.31;5049053;28;20343;-48
2023/06/19 09:40:45;;;;;;;14.60;9.18;;;;;;;22.55;100.00;101241.00;5050405;28;20029;-48
2023/06/19 09:43:11;;;;;;;20.23;9.85;;;;;;;22.49;100.00;101235.72;5032601;28;20025;-49
2023/06/19 09:45:38;;;;;;;18.30;9.70;;;;;;;22.49;100.00;101249.44;5050315;28;20507;-49
2023/06/19 09:48:03;;;;;;;14.35;8.95;;;;;;;22.14;100.00;101248.59;5049153;28;20029;-45
2023/06/19 09:50:29;;;;;;;16.15;9.25;;;;;;;22.44;100.00;101258.41;5049359;28;20498;-48
2023/06/19 09:52:55;;;;;;;13.95;8.80;;;;;;;22.95;100.00;101247.31;5032609;28;20055;-48
2023/06/19 09:55:23;;;;;;;22.45;8.93;;;;;;;22.95;100.00;101252.78;5048985;28;20053;-46
2023/06/19 09:57:49;;;;;;;13.65;7.95;;;;;;;23.33;100.00;101254.69;5050269;28;20029;-48
2023/06/19 10:00:19;;;;;;;14.45;8.85;;;;;;;22.99;100.00;101249.31;5032517;28;20120;-48
2023/06/19 10:02:46;;;;;;;14.57;7.72;;;;;;;23.21;100.00;101256.72;5049389;28;20025;-47
2023/06/19 10:05:13;;;;;;;13.15;7.00;;;;;;;22.83;100.00;101250.19;5049185;28;20025;-48
2023/06/19 10:07:40;;;;;;;14.90;7.83;;;;;;;23.12;100.00;101244.56;5050426;28;20475;-47
2023/06/19 10:10:09;;;;;;;;;;;;;;;23.53;100.00;101240.31;5049107;28;20326;-47
2023/06/19 10:12:36;;;;;;;13.77;7.30;;;;;;;23.53;100.00;101256.81;5048717;28;19913;-50
2023/06/19 10:15:18;;;;;;;12.35;7.40;;;;;;;23.29;100.00;101255.44;5048637;28;20033;-47
2023/06/19 10:17:49;;;;;;;12.23;6.65;;;;;;;23.81;100.00;101261.25;5048746;28;20357;-47
2023/06/19 10:20:27;;;;;;;13.32;6.90;;;;;;;24.37;100.00;101263.63;5048756;28;20044;-47
2023/06/19 10:23:02;;;;;;;9.18;6.65;;;;;;;24.04;100.00;101259.25;5050577;28;20029;-47
2023/06/19 10:25:31;;;;;;;10.48;6.63;;;;;;;24.32;100.00;101258.91;5048821;28;20441;-48
2023/06/19 10:27:57;;;;;;;11.32;6.38;;;;;;;24.28;100.00;101266.06;5050189;28;20037;-48
2023/06/19 10:30:22;;;;;;;12.43;6.18;;;;;;;24.29;100.00;101261.38;5048859;28;20021;-49
2023/06/19 10:32:48;;;;;;;8.35;5.80;;;;;;;24.39;100.00;101261.47;5050173;28;20429;-45
2023/06/19 10:35:15;;;;;;;8.27;5.85;;;;;;;24.73;100.00;101261.97;5050273;28;20021;-46
2023/06/19 10:37:40;;;;;;;12.15;6.35;;;;;;;24.67;100.00;101256.69;5050123;28;20021;-47
2023/06/19 10:40:12;;;;;;;10.07;6.00;;;;;;;24.54;100.00;101263.53;5048781;28;20065;-47
2023/06/19 10:42:39;;;;;;;10.13;6.15;;;;;;;24.10;100.00;101258.22;5049656;28;20041;-47
2023/06/19 10:45:06;;;;;;;12.45;5.93;;;;;;;23.72;100.00;101262.78;5052713;28;20428;-46
2023/06/19 10:47:34;;;;;;;;;;;;;;;24.13;100.00;101257.69;5036295;28;20029;-47
2023/06/19 10:50:00;;;;;;;10.05;5.55;;;;;;;25.05;100.00;101255.53;5053480;28;19913;-47
2023/06/19 10:52:28;;;;;;;11.18;6.60;;;;;;;24.42;100.00;101262.84;5053586;28;20041;-49
2023/06/19 10:54:54;;;;;;;9.02;5.97;;;;;;;24.42;100.00;101255.44;5052352;28;20025;-47
2023/06/19 10:57:32;;;;;;;14.93;6.28;;;;;;;24.05;100.00;101250.75;5053347;28;20067;-48
2023/06/19 10:59:58;;;;;;;11.00;5.43;;;;;;;24.67;100.00;101254.81;5053169;28;20032;-46